sensor_id;sensor_type;location;lat;lon;timestamp;P1;durP1;ratioP1;P2;durP2;ratioP2
50647;SDS011;36617;52.002;6.034;2023-02-01T00:01:20;6.53;;;2.10;;
50647;SDS011;36617;52.002;6.034;2023-02-01T00:03:45;7.80;;;2.20;;
50647;SDS011;36617;52.002;6.034;2023-02-01T00:06:10;7.17;;;2.13;;
50647;SDS011;36617;52.002;6.034;2023-02-01T00:08:35;6.30;;;1.90;;
50647;SDS011;36617;52.002;6.034;2023-02-01T00:11:04;6.87;;;2.10;;
50647;SDS011;36617;52.002;6.034;2023-02-01T00:13:31;5.97;;;1.90;;
50647;SDS011;36617;52.002;6.034;2023-02-01T00:16:09;7.03;;;2.03;;
50647;SDS011;36617;52.002;6.034;2023-02-01T00:18:37;6.55;;;2.08;;
50647;SDS011;36617;52.002;6.034;2023-02-01T00:21:02;6.85;;;2.10;;
50647;SDS011;36617;52.002;6.034;2023-02-01T00:23:27;9.77;;;1.80;;
50647;SDS011;36617;52.002;6.034;2023-02-01T00:25:53;6.13;;;2.00;;
50647;SDS011;36617;52.002;6.034;2023-02-01T00:28:18;5.97;;;2.00;;
50647;SDS011;36617;52.002;6.034;2023-02-01T00:30:43;7.97;;;2.20;;
50647;SDS011;36617;52.002;6.034;2023-02-01T00:33:08;6.37;;;1.90;;
50647;SDS011;36617;52.002;6.034;2023-02-01T00:35:34;6.57;;;2.10;;
50647;SDS011;36617;52.002;6.034;2023-02-01T00:37:59;8.23;;;1.95;;
50647;SDS011;36617;52.002;6.034;2023-02-01T00:40:25;7.17;;;1.97;;
50647;SDS011;36617;52.002;6.034;2023-02-01T00:42:50;7.67;;;2.03;;
50647;SDS011;36617;52.002;6.034;2023-02-01T00:45:15;7.00;;;2.10;;
50647;SDS011;36617;52.002;6.034;2023-02-01T00:47:40;6.13;;;1.80;;
50647;SDS011;36617;52.002;6.034;2023-02-01T00:50:06;6.40;;;1.90;;
50647;SDS011;36617;52.002;6.034;2023-02-01T00:52:31;5.80;;;2.15;;
50647;SDS011;36617;52.002;6.034;2023-02-01T00:54:56;6.07;;;1.83;;
50647;SDS011;36617;52.002;6.034;2023-02-01T00:57:21;9.10;;;1.77;;
50647;SDS011;36617;52.002;6.034;2023-02-01T00:59:47;6.67;;;2.00;;
50647;SDS011;36617;52.002;6.034;2023-02-01T01:02:12;6.57;;;2.00;;
50647;SDS011;36617;52.002;6.034;2023-02-01T01:04:39;6.80;;;1.90;;
50647;SDS011;36617;52.002;6.034;2023-02-01T01:07:04;7.03;;;2.07;;
50647;SDS011;36617;52.002;6.034;2023-02-01T01:09:29;7.60;;;1.90;;
50647;SDS011;36617;52.002;6.034;2023-02-01T01:11:54;8.20;;;2.00;;
50647;SDS011;36617;52.002;6.034;2023-02-01T01:14:20;5.93;;;1.90;;
50647;SDS011;36617;52.002;6.034;2023-02-01T01:16:45;5.57;;;1.70;;
50647;SDS011;36617;52.002;6.034;2023-02-01T01:19:10;6.73;;;2.07;;
50647;SDS011;36617;52.002;6.034;2023-02-01T01:21:36;5.80;;;1.90;;
50647;SDS011;36617;52.002;6.034;2023-02-01T01:24:01;4.93;;;1.70;;
50647;SDS011;36617;52.002;6.034;2023-02-01T01:26:27;7.47;;;1.70;;
50647;SDS011;36617;52.002;6.034;2023-02-01T01:28:54;6.80;;;2.05;;
50647;SDS011;36617;52.002;6.034;2023-02-01T01:31:20;5.28;;;1.55;;
50647;SDS011;36617;52.002;6.034;2023-02-01T01:33:47;6.10;;;1.77;;
50647;SDS011;36617;52.002;6.034;2023-02-01T01:36:12;6.32;;;1.85;;
50647;SDS011;36617;52.002;6.034;2023-02-01T01:38:38;7.07;;;1.90;;
50647;SDS011;36617;52.002;6.034;2023-02-01T01:41:03;6.70;;;1.90;;
50647;SDS011;36617;52.002;6.034;2023-02-01T01:46:16;6.63;;;1.80;;
50647;SDS011;36617;52.002;6.034;2023-02-01T01:48:41;6.80;;;1.90;;
50647;SDS011;36617;52.002;6.034;2023-02-01T01:51:08;6.63;;;1.90;;
50647;SDS011;36617;52.002;6.034;2023-02-01T01:53:40;6.07;;;2.10;;
50647;SDS011;36617;52.002;6.034;2023-02-01T01:56:07;7.43;;;2.00;;
50647;SDS011;36617;52.002;6.034;2023-02-01T01:58:32;6.10;;;1.90;;
50647;SDS011;36617;52.002;6.034;2023-02-01T02:00:58;5.63;;;2.00;;
50647;SDS011;36617;52.002;6.034;2023-02-01T02:03:25;5.60;;;1.83;;
50647;SDS011;36617;52.002;6.034;2023-02-01T02:05:52;7.30;;;1.80;;
50647;SDS011;36617;52.002;6.034;2023-02-01T02:08:19;6.68;;;1.77;;
50647;SDS011;36617;52.002;6.034;2023-02-01T02:10:45;6.05;;;1.83;;
50647;SDS011;36617;52.002;6.034;2023-02-01T02:13:26;5.45;;;1.70;;
50647;SDS011;36617;52.002;6.034;2023-02-01T02:16:16;6.22;;;1.83;;
50647;SDS011;36617;52.002;6.034;2023-02-01T02:19:04;5.35;;;1.70;;
50647;SDS011;36617;52.002;6.034;2023-02-01T02:26:56;7.03;;;1.90;;
50647;SDS011;36617;52.002;6.034;2023-02-01T02:29:41;5.65;;;1.60;;
50647;SDS011;36617;52.002;6.034;2023-02-01T02:32:36;6.70;;;1.75;;
50647;SDS011;36617;52.002;6.034;2023-02-01T02:34:56;7.78;;;2.00;;
50647;SDS011;36617;52.002;6.034;2023-02-01T02:42:27;7.95;;;1.65;;
50647;SDS011;36617;52.002;6.034;2023-02-01T02:45:17;6.28;;;1.63;;
50647;SDS011;36617;52.002;6.034;2023-02-01T02:48:10;7.40;;;1.80;;
50647;SDS011;36617;52.002;6.034;2023-02-01T02:50:47;7.38;;;1.75;;
50647;SDS011;36617;52.002;6.034;2023-02-01T02:53:38;7.88;;;1.83;;
50647;SDS011;36617;52.002;6.034;2023-02-01T02:56:22;8.52;;;1.90;;
50647;SDS011;36617;52.002;6.034;2023-02-01T02:59:08;9.90;;;1.93;;
50647;SDS011;36617;52.002;6.034;2023-02-01T03:01:52;5.95;;;1.80;;
50647;SDS011;36617;52.002;6.034;2023-02-01T03:04:37;7.05;;;1.77;;
50647;SDS011;36617;52.002;6.034;2023-02-01T03:07:11;5.88;;;1.73;;
50647;SDS011;36617;52.002;6.034;2023-02-01T03:09:37;5.90;;;1.70;;
50647;SDS011;36617;52.002;6.034;2023-02-01T03:12:06;6.73;;;1.80;;
50647;SDS011;36617;52.002;6.034;2023-02-01T03:14:56;7.63;;;1.95;;
50647;SDS011;36617;52.002;6.034;2023-02-01T03:17:24;6.95;;;1.75;;
50647;SDS011;36617;52.002;6.034;2023-02-01T03:19:55;5.47;;;1.60;;
50647;SDS011;36617;52.002;6.034;2023-02-01T03:22:22;6.72;;;2.00;;
50647;SDS011;36617;52.002;6.034;2023-02-01T03:29:44;6.90;;;1.70;;
50647;SDS011;36617;52.002;6.034;2023-02-01T03:32:10;5.65;;;1.80;;
50647;SDS011;36617;52.002;6.034;2023-02-01T03:34:36;7.07;;;1.80;;
50647;SDS011;36617;52.002;6.034;2023-02-01T03:37:02;4.75;;;1.63;;
50647;SDS011;36617;52.002;6.034;2023-02-01T03:41:55;7.10;;;1.73;;
50647;SDS011;36617;52.002;6.034;2023-02-01T03:46:51;6.10;;;1.87;;
50647;SDS011;36617;52.002;6.034;2023-02-01T03:49:22;5.68;;;1.70;;
50647;SDS011;36617;52.002;6.034;2023-02-01T03:51:48;5.60;;;1.50;;
50647;SDS011;36617;52.002;6.034;2023-02-01T03:54:15;5.38;;;1.70;;
50647;SDS011;36617;52.002;6.034;2023-02-01T03:56:43;8.32;;;1.63;;
50647;SDS011;36617;52.002;6.034;2023-02-01T03:59:09;6.40;;;1.80;;
50647;SDS011;36617;52.002;6.034;2023-02-01T04:01:34;5.28;;;1.70;;
50647;SDS011;36617;52.002;6.034;2023-02-01T04:03:59;5.83;;;1.70;;
50647;SDS011;36617;52.002;6.034;2023-02-01T04:06:25;6.80;;;1.70;;
50647;SDS011;36617;52.002;6.034;2023-02-01T04:08:50;6.47;;;1.50;;
50647;SDS011;36617;52.002;6.034;2023-02-01T04:11:16;5.97;;;1.70;;
50647;SDS011;36617;52.002;6.034;2023-02-01T04:13:41;8.27;;;1.88;;
50647;SDS011;36617;52.002;6.034;2023-02-01T04:16:07;6.17;;;1.63;;
50647;SDS011;36617;52.002;6.034;2023-02-01T04:18:32;5.40;;;1.60;;
50647;SDS011;36617;52.002;6.034;2023-02-01T04:20:57;6.83;;;1.70;;
50647;SDS011;36617;52.002;6.034;2023-02-01T04:23:22;7.67;;;1.70;;
50647;SDS011;36617;52.002;6.034;2023-02-01T04:25:47;6.13;;;1.80;;
50647;SDS011;36617;52.002;6.034;2023-02-01T04:28:13;6.90;;;1.80;;
50647;SDS011;36617;52.002;6.034;2023-02-01T04:30:38;7.20;;;1.70;;
50647;SDS011;36617;52.002;6.034;2023-02-01T04:33:03;6.50;;;1.60;;
50647;SDS011;36617;52.002;6.034;2023-02-01T04:35:31;6.07;;;1.67;;
50647;SDS011;36617;52.002;6.034;2023-02-01T04:37:57;7.87;;;1.80;;
50647;SDS011;36617;52.002;6.034;2023-02-01T04:40:22;5.17;;;1.57;;
50647;SDS011;36617;52.002;6.034;2023-02-01T04:42:47;7.63;;;1.83;;
50647;SDS011;36617;52.002;6.034;2023-02-01T04:45:12;6.60;;;1.67;;
50647;SDS011;36617;52.002;6.034;2023-02-01T04:47:38;6.40;;;1.70;;
50647;SDS011;36617;52.002;6.034;2023-02-01T04:50:03;5.67;;;1.70;;
50647;SDS011;36617;52.002;6.034;2023-02-01T04:52:28;5.80;;;1.63;;
50647;SDS011;36617;52.002;6.034;2023-02-01T04:54:54;7.03;;;2.00;;
50647;SDS011;36617;52.002;6.034;2023-02-01T04:57:22;6.67;;;1.73;;
50647;SDS011;36617;52.002;6.034;2023-02-01T04:59:47;5.63;;;1.60;;
50647;SDS011;36617;52.002;6.034;2023-02-01T05:02:12;5.73;;;1.60;;
50647;SDS011;36617;52.002;6.034;2023-02-01T05:04:37;7.23;;;1.90;;
50647;SDS011;36617;52.002;6.034;2023-02-01T05:07:02;6.90;;;1.80;;
50647;SDS011;36617;52.002;6.034;2023-02-01T05:09:28;4.50;;;1.50;;
50647;SDS011;36617;52.002;6.034;2023-02-01T05:11:53;6.57;;;1.73;;
50647;SDS011;36617;52.002;6.034;2023-02-01T05:14:37;7.50;;;1.80;;
50647;SDS011;36617;52.002;6.034;2023-02-01T05:17:02;6.13;;;1.53;;
50647;SDS011;36617;52.002;6.034;2023-02-01T05:19:27;5.67;;;1.60;;
50647;SDS011;36617;52.002;6.034;2023-02-01T05:21:52;5.33;;;1.77;;
50647;SDS011;36617;52.002;6.034;2023-02-01T05:24:17;6.60;;;1.67;;
50647;SDS011;36617;52.002;6.034;2023-02-01T05:26:46;6.22;;;1.60;;
50647;SDS011;36617;52.002;6.034;2023-02-01T05:29:12;5.18;;;1.50;;
50647;SDS011;36617;52.002;6.034;2023-02-01T05:31:37;6.50;;;1.60;;
50647;SDS011;36617;52.002;6.034;2023-02-01T05:34:02;6.37;;;1.73;;
50647;SDS011;36617;52.002;6.034;2023-02-01T05:36:28;6.67;;;1.50;;
50647;SDS011;36617;52.002;6.034;2023-02-01T05:38:53;6.03;;;1.67;;
50647;SDS011;36617;52.002;6.034;2023-02-01T05:41:18;5.77;;;1.70;;
50647;SDS011;36617;52.002;6.034;2023-02-01T05:43:43;7.03;;;1.70;;
50647;SDS011;36617;52.002;6.034;2023-02-01T05:46:09;5.87;;;1.53;;
50647;SDS011;36617;52.002;6.034;2023-02-01T05:48:41;5.95;;;1.60;;
50647;SDS011;36617;52.002;6.034;2023-02-01T05:51:06;5.35;;;1.63;;
50647;SDS011;36617;52.002;6.034;2023-02-01T05:53:31;4.93;;;1.60;;
50647;SDS011;36617;52.002;6.034;2023-02-01T05:55:56;6.63;;;1.70;;
50647;SDS011;36617;52.002;6.034;2023-02-01T05:58:21;6.40;;;1.60;;
50647;SDS011;36617;52.002;6.034;2023-02-01T06:00:47;5.60;;;1.70;;
50647;SDS011;36617;52.002;6.034;2023-02-01T06:03:12;6.93;;;1.70;;
50647;SDS011;36617;52.002;6.034;2023-02-01T06:05:37;5.87;;;1.80;;
50647;SDS011;36617;52.002;6.034;2023-02-01T06:08:02;6.43;;;1.57;;
50647;SDS011;36617;52.002;6.034;2023-02-01T06:10:27;5.93;;;1.70;;
50647;SDS011;36617;52.002;6.034;2023-02-01T06:12:53;6.90;;;1.83;;
50647;SDS011;36617;52.002;6.034;2023-02-01T06:15:18;5.33;;;1.47;;
50647;SDS011;36617;52.002;6.034;2023-02-01T06:17:44;6.23;;;1.60;;
50647;SDS011;36617;52.002;6.034;2023-02-01T06:20:09;5.20;;;1.52;;
50647;SDS011;36617;52.002;6.034;2023-02-01T06:22:35;7.30;;;2.03;;
50647;SDS011;36617;52.002;6.034;2023-02-01T06:25:01;5.43;;;1.55;;
50647;SDS011;36617;52.002;6.034;2023-02-01T06:27:26;6.37;;;1.70;;
50647;SDS011;36617;52.002;6.034;2023-02-01T06:29:51;7.40;;;1.53;;
50647;SDS011;36617;52.002;6.034;2023-02-01T06:32:16;7.17;;;1.87;;
50647;SDS011;36617;52.002;6.034;2023-02-01T06:34:42;6.63;;;1.70;;
50647;SDS011;36617;52.002;6.034;2023-02-01T06:37:07;6.63;;;1.70;;
50647;SDS011;36617;52.002;6.034;2023-02-01T06:39:33;6.20;;;1.50;;
50647;SDS011;36617;52.002;6.034;2023-02-01T06:41:58;5.43;;;1.57;;
50647;SDS011;36617;52.002;6.034;2023-02-01T06:44:23;6.00;;;1.67;;
50647;SDS011;36617;52.002;6.034;2023-02-01T06:46:48;6.87;;;1.80;;
50647;SDS011;36617;52.002;6.034;2023-02-01T06:49:13;5.00;;;1.73;;
50647;SDS011;36617;52.002;6.034;2023-02-01T06:51:39;4.88;;;1.58;;
50647;SDS011;36617;52.002;6.034;2023-02-01T06:54:04;5.33;;;1.67;;
50647;SDS011;36617;52.002;6.034;2023-02-01T06:56:29;6.50;;;1.70;;
50647;SDS011;36617;52.002;6.034;2023-02-01T06:58:56;4.75;;;1.48;;
50647;SDS011;36617;52.002;6.034;2023-02-01T07:01:21;5.43;;;1.80;;
50647;SDS011;36617;52.002;6.034;2023-02-01T07:03:47;5.50;;;1.70;;
50647;SDS011;36617;52.002;6.034;2023-02-01T07:06:12;5.65;;;1.65;;
50647;SDS011;36617;52.002;6.034;2023-02-01T07:08:37;6.17;;;1.60;;
50647;SDS011;36617;52.002;6.034;2023-02-01T07:11:03;5.47;;;1.50;;
50647;SDS011;36617;52.002;6.034;2023-02-01T07:13:29;6.13;;;1.77;;
50647;SDS011;36617;52.002;6.034;2023-02-01T07:15:54;6.73;;;1.80;;
50647;SDS011;36617;52.002;6.034;2023-02-01T07:18:22;5.82;;;1.67;;
50647;SDS011;36617;52.002;6.034;2023-02-01T07:20:49;6.50;;;1.50;;
50647;SDS011;36617;52.002;6.034;2023-02-01T07:23:14;6.72;;;1.92;;
50647;SDS011;36617;52.002;6.034;2023-02-01T07:25:40;5.93;;;1.60;;
50647;SDS011;36617;52.002;6.034;2023-02-01T07:28:05;6.70;;;1.73;;
50647;SDS011;36617;52.002;6.034;2023-02-01T07:30:30;4.90;;;1.77;;
50647;SDS011;36617;52.002;6.034;2023-02-01T07:32:55;6.17;;;1.60;;
50647;SDS011;36617;52.002;6.034;2023-02-01T07:35:24;7.27;;;1.80;;
50647;SDS011;36617;52.002;6.034;2023-02-01T07:37:49;6.33;;;1.67;;
50647;SDS011;36617;52.002;6.034;2023-02-01T07:40:14;6.80;;;1.80;;
50647;SDS011;36617;52.002;6.034;2023-02-01T07:42:39;6.43;;;1.70;;
50647;SDS011;36617;52.002;6.034;2023-02-01T07:45:05;7.43;;;1.73;;
50647;SDS011;36617;52.002;6.034;2023-02-01T07:47:30;5.20;;;1.80;;
50647;SDS011;36617;52.002;6.034;2023-02-01T07:49:55;6.77;;;1.67;;
50647;SDS011;36617;52.002;6.034;2023-02-01T07:52:21;5.03;;;1.50;;
50647;SDS011;36617;52.002;6.034;2023-02-01T07:54:46;4.40;;;1.30;;
50647;SDS011;36617;52.002;6.034;2023-02-01T07:57:11;6.67;;;1.97;;
50647;SDS011;36617;52.002;6.034;2023-02-01T07:59:36;5.67;;;1.60;;
50647;SDS011;36617;52.002;6.034;2023-02-01T08:02:21;5.78;;;1.70;;
50647;SDS011;36617;52.002;6.034;2023-02-01T08:04:47;6.00;;;1.80;;
50647;SDS011;36617;52.002;6.034;2023-02-01T08:07:12;5.40;;;1.67;;
50647;SDS011;36617;52.002;6.034;2023-02-01T08:09:37;5.22;;;1.50;;
50647;SDS011;36617;52.002;6.034;2023-02-01T08:12:02;5.33;;;1.70;;
50647;SDS011;36617;52.002;6.034;2023-02-01T08:14:27;6.40;;;2.00;;
50647;SDS011;36617;52.002;6.034;2023-02-01T08:16:53;6.13;;;1.67;;
50647;SDS011;36617;52.002;6.034;2023-02-01T08:19:18;6.13;;;1.40;;
50647;SDS011;36617;52.002;6.034;2023-02-01T08:21:44;4.50;;;1.33;;
50647;SDS011;36617;52.002;6.034;2023-02-01T08:24:09;5.07;;;1.40;;
50647;SDS011;36617;52.002;6.034;2023-02-01T08:26:34;5.73;;;1.70;;
50647;SDS011;36617;52.002;6.034;2023-02-01T08:29:00;6.17;;;1.70;;
50647;SDS011;36617;52.002;6.034;2023-02-01T08:31:27;5.70;;;1.80;;
50647;SDS011;36617;52.002;6.034;2023-02-01T08:33:53;5.38;;;1.65;;
50647;SDS011;36617;52.002;6.034;2023-02-01T08:36:19;5.80;;;1.65;;
50647;SDS011;36617;52.002;6.034;2023-02-01T08:38:45;5.33;;;1.90;;
50647;SDS011;36617;52.002;6.034;2023-02-01T08:41:11;5.17;;;1.60;;
50647;SDS011;36617;52.002;6.034;2023-02-01T08:43:37;5.30;;;1.43;;
50647;SDS011;36617;52.002;6.034;2023-02-01T08:46:03;6.23;;;1.87;;
50647;SDS011;36617;52.002;6.034;2023-02-01T08:48:28;5.13;;;1.67;;
50647;SDS011;36617;52.002;6.034;2023-02-01T08:50:53;5.13;;;1.70;;
50647;SDS011;36617;52.002;6.034;2023-02-01T08:53:18;5.87;;;1.70;;
50647;SDS011;36617;52.002;6.034;2023-02-01T08:55:45;6.10;;;1.87;;
50647;SDS011;36617;52.002;6.034;2023-02-01T08:58:10;6.00;;;1.65;;
50647;SDS011;36617;52.002;6.034;2023-02-01T09:00:35;6.33;;;1.80;;
50647;SDS011;36617;52.002;6.034;2023-02-01T09:03:01;5.77;;;1.50;;
50647;SDS011;36617;52.002;6.034;2023-02-01T09:05:26;5.47;;;1.60;;
50647;SDS011;36617;52.002;6.034;2023-02-01T09:07:52;5.40;;;1.60;;
50647;SDS011;36617;52.002;6.034;2023-02-01T09:10:18;5.47;;;1.57;;
50647;SDS011;36617;52.002;6.034;2023-02-01T09:12:43;6.40;;;1.87;;
50647;SDS011;36617;52.002;6.034;2023-02-01T09:15:08;5.37;;;1.50;;
50647;SDS011;36617;52.002;6.034;2023-02-01T09:17:34;5.00;;;1.55;;
50647;SDS011;36617;52.002;6.034;2023-02-01T09:19:59;5.38;;;1.73;;
50647;SDS011;36617;52.002;6.034;2023-02-01T09:22:24;5.07;;;1.50;;
50647;SDS011;36617;52.002;6.034;2023-02-01T09:24:52;5.03;;;1.50;;
50647;SDS011;36617;52.002;6.034;2023-02-01T09:27:17;5.50;;;1.60;;
50647;SDS011;36617;52.002;6.034;2023-02-01T09:29:43;5.90;;;1.53;;
50647;SDS011;36617;52.002;6.034;2023-02-01T09:32:08;5.10;;;1.50;;
50647;SDS011;36617;52.002;6.034;2023-02-01T09:34:33;5.47;;;1.47;;
50647;SDS011;36617;52.002;6.034;2023-02-01T09:36:59;5.67;;;1.60;;
50647;SDS011;36617;52.002;6.034;2023-02-01T09:39:24;5.37;;;1.50;;
50647;SDS011;36617;52.002;6.034;2023-02-01T09:46:54;4.82;;;1.55;;
50647;SDS011;36617;52.002;6.034;2023-02-01T09:49:22;4.23;;;1.50;;
50647;SDS011;36617;52.002;6.034;2023-02-01T09:51:49;5.03;;;1.55;;
50647;SDS011;36617;52.002;6.034;2023-02-01T09:54:17;4.20;;;1.33;;
50647;SDS011;36617;52.002;6.034;2023-02-01T09:56:47;5.85;;;1.40;;
50647;SDS011;36617;52.002;6.034;2023-02-01T10:01:40;4.83;;;1.73;;
50647;SDS011;36617;52.002;6.034;2023-02-01T10:04:08;4.75;;;1.55;;
50647;SDS011;36617;52.002;6.034;2023-02-01T10:09:08;4.43;;;1.50;;
50647;SDS011;36617;52.002;6.034;2023-02-01T10:19:45;4.35;;;1.50;;
50647;SDS011;36617;52.002;6.034;2023-02-01T10:25:19;5.53;;;1.60;;
50647;SDS011;36617;52.002;6.034;2023-02-01T10:27:48;5.50;;;1.55;;
50647;SDS011;36617;52.002;6.034;2023-02-01T10:32:39;7.10;;;1.63;;
50647;SDS011;36617;52.002;6.034;2023-02-01T10:35:13;4.90;;;1.40;;
50647;SDS011;36617;52.002;6.034;2023-02-01T10:37:40;5.35;;;1.70;;
50647;SDS011;36617;52.002;6.034;2023-02-01T10:40:15;5.57;;;1.73;;
50647;SDS011;36617;52.002;6.034;2023-02-01T10:42:40;5.18;;;1.42;;
50647;SDS011;36617;52.002;6.034;2023-02-01T10:45:06;4.87;;;1.50;;
50647;SDS011;36617;52.002;6.034;2023-02-01T10:47:31;5.95;;;1.60;;
50647;SDS011;36617;52.002;6.034;2023-02-01T10:49:58;5.37;;;1.50;;
50647;SDS011;36617;52.002;6.034;2023-02-01T10:54:54;6.10;;;1.73;;
50647;SDS011;36617;52.002;6.034;2023-02-01T10:57:23;4.50;;;1.30;;
50647;SDS011;36617;52.002;6.034;2023-02-01T10:59:51;5.88;;;1.50;;
50647;SDS011;36617;52.002;6.034;2023-02-01T11:02:19;5.77;;;1.70;;
50647;SDS011;36617;52.002;6.034;2023-02-01T11:04:45;5.13;;;1.60;;
50647;SDS011;36617;52.002;6.034;2023-02-01T11:07:23;5.03;;;1.63;;
50647;SDS011;36617;52.002;6.034;2023-02-01T11:09:50;5.38;;;1.40;;
50647;SDS011;36617;52.002;6.034;2023-02-01T11:12:22;5.43;;;1.60;;
50647;SDS011;36617;52.002;6.034;2023-02-01T11:14:48;5.97;;;1.70;;
50647;SDS011;36617;52.002;6.034;2023-02-01T11:19:38;5.83;;;1.70;;
50647;SDS011;36617;52.002;6.034;2023-02-01T11:22:03;5.53;;;1.73;;
50647;SDS011;36617;52.002;6.034;2023-02-01T11:24:31;7.03;;;1.98;;
50647;SDS011;36617;52.002;6.034;2023-02-01T11:26:58;6.88;;;1.48;;
50647;SDS011;36617;52.002;6.034;2023-02-01T11:29:24;6.72;;;1.60;;
50647;SDS011;36617;52.002;6.034;2023-02-01T11:31:54;5.22;;;1.60;;
50647;SDS011;36617;52.002;6.034;2023-02-01T11:34:21;8.07;;;1.70;;
50647;SDS011;36617;52.002;6.034;2023-02-01T11:36:48;5.83;;;1.67;;
50647;SDS011;36617;52.002;6.034;2023-02-01T11:41:43;6.35;;;1.60;;
50647;SDS011;36617;52.002;6.034;2023-02-01T11:44:22;6.30;;;1.65;;
50647;SDS011;36617;52.002;6.034;2023-02-01T11:46:47;7.80;;;1.73;;
50647;SDS011;36617;52.002;6.034;2023-02-01T11:51:44;6.28;;;1.65;;
50647;SDS011;36617;52.002;6.034;2023-02-01T12:10:28;5.72;;;1.73;;
50647;SDS011;36617;52.002;6.034;2023-02-01T12:15:40;6.18;;;1.70;;
50647;SDS011;36617;52.002;6.034;2023-02-01T12:44:03;6.83;;;1.60;;
50647;SDS011;36617;52.002;6.034;2023-02-01T12:46:43;6.10;;;1.50;;
50647;SDS011;36617;52.002;6.034;2023-02-01T12:49:19;7.38;;;1.70;;
50647;SDS011;36617;52.002;6.034;2023-02-01T12:51:50;5.30;;;1.60;;
50647;SDS011;36617;52.002;6.034;2023-02-01T12:56:44;5.70;;;1.53;;
50647;SDS011;36617;52.002;6.034;2023-02-01T12:59:33;5.90;;;1.70;;
50647;SDS011;36617;52.002;6.034;2023-02-01T13:01:57;5.85;;;1.70;;
50647;SDS011;36617;52.002;6.034;2023-02-01T13:09:27;6.35;;;2.03;;
50647;SDS011;36617;52.002;6.034;2023-02-01T13:11:57;6.82;;;1.73;;
50647;SDS011;36617;52.002;6.034;2023-02-01T13:16:49;6.90;;;1.90;;
50647;SDS011;36617;52.002;6.034;2023-02-01T13:19:17;6.55;;;1.75;;
50647;SDS011;36617;52.002;6.034;2023-02-01T13:21:47;7.70;;;1.80;;
50647;SDS011;36617;52.002;6.034;2023-02-01T13:26:59;7.13;;;1.75;;
50647;SDS011;36617;52.002;6.034;2023-02-01T13:29:24;7.70;;;1.80;;
50647;SDS011;36617;52.002;6.034;2023-02-01T13:31:54;7.80;;;1.70;;
50647;SDS011;36617;52.002;6.034;2023-02-01T13:37:18;8.13;;;2.10;;
50647;SDS011;36617;52.002;6.034;2023-02-01T13:44:40;6.35;;;1.70;;
50647;SDS011;36617;52.002;6.034;2023-02-01T13:49:51;6.70;;;1.70;;
50647;SDS011;36617;52.002;6.034;2023-02-01T13:52:25;5.78;;;1.80;;
50647;SDS011;36617;52.002;6.034;2023-02-01T13:55:00;5.30;;;1.70;;
50647;SDS011;36617;52.002;6.034;2023-02-01T13:57:34;5.93;;;1.60;;
50647;SDS011;36617;52.002;6.034;2023-02-01T14:00:34;5.65;;;1.63;;
50647;SDS011;36617;52.002;6.034;2023-02-01T14:13:23;4.80;;;1.70;;
50647;SDS011;36617;52.002;6.034;2023-02-01T14:23:40;6.60;;;1.80;;
50647;SDS011;36617;52.002;6.034;2023-02-01T14:26:07;6.45;;;1.73;;
50647;SDS011;36617;52.002;6.034;2023-02-01T14:28:34;8.43;;;1.60;;
50647;SDS011;36617;52.002;6.034;2023-02-01T14:30:59;6.25;;;1.60;;
50647;SDS011;36617;52.002;6.034;2023-02-01T14:33:25;7.40;;;1.80;;
50647;SDS011;36617;52.002;6.034;2023-02-01T14:35:57;6.30;;;1.40;;
50647;SDS011;36617;52.002;6.034;2023-02-01T14:38:23;6.43;;;1.60;;
50647;SDS011;36617;52.002;6.034;2023-02-01T14:40:48;5.57;;;1.80;;
50647;SDS011;36617;52.002;6.034;2023-02-01T14:43:13;5.68;;;1.58;;
50647;SDS011;36617;52.002;6.034;2023-02-01T14:55:35;5.95;;;1.55;;
50647;SDS011;36617;52.002;6.034;2023-02-01T14:58:01;6.47;;;1.60;;
50647;SDS011;36617;52.002;6.034;2023-02-01T15:00:30;6.43;;;1.80;;
50647;SDS011;36617;52.002;6.034;2023-02-01T15:03:10;4.90;;;1.40;;
50647;SDS011;36617;52.002;6.034;2023-02-01T15:05:38;6.75;;;1.60;;
50647;SDS011;36617;52.002;6.034;2023-02-01T15:08:05;4.27;;;1.50;;
50647;SDS011;36617;52.002;6.034;2023-02-01T15:10:31;6.70;;;1.42;;
50647;SDS011;36617;52.002;6.034;2023-02-01T15:12:57;5.50;;;1.40;;
50647;SDS011;36617;52.002;6.034;2023-02-01T15:15:23;7.60;;;1.80;;
50647;SDS011;36617;52.002;6.034;2023-02-01T15:17:55;7.60;;;1.70;;
50647;SDS011;36617;52.002;6.034;2023-02-01T15:20:23;5.78;;;1.63;;
50647;SDS011;36617;52.002;6.034;2023-02-01T15:22:56;5.75;;;1.50;;
50647;SDS011;36617;52.002;6.034;2023-02-01T15:25:22;6.63;;;1.55;;
50647;SDS011;36617;52.002;6.034;2023-02-01T15:27:47;5.55;;;1.58;;
50647;SDS011;36617;52.002;6.034;2023-02-01T15:30:33;6.78;;;1.80;;
50647;SDS011;36617;52.002;6.034;2023-02-01T15:33:14;6.38;;;1.50;;
50647;SDS011;36617;52.002;6.034;2023-02-01T15:38:21;7.20;;;1.80;;
50647;SDS011;36617;52.002;6.034;2023-02-01T15:40:56;6.13;;;1.35;;
50647;SDS011;36617;52.002;6.034;2023-02-01T15:43:22;6.03;;;1.63;;
50647;SDS011;36617;52.002;6.034;2023-02-01T15:45:48;6.23;;;1.57;;
50647;SDS011;36617;52.002;6.034;2023-02-01T15:48:18;6.07;;;1.67;;
50647;SDS011;36617;52.002;6.034;2023-02-01T15:50:45;6.35;;;1.55;;
50647;SDS011;36617;52.002;6.034;2023-02-01T15:53:13;5.07;;;1.42;;
50647;SDS011;36617;52.002;6.034;2023-02-01T15:55:41;5.25;;;1.30;;
50647;SDS011;36617;52.002;6.034;2023-02-01T15:58:07;6.22;;;1.60;;
50647;SDS011;36617;52.002;6.034;2023-02-01T16:00:42;5.67;;;1.57;;
50647;SDS011;36617;52.002;6.034;2023-02-01T16:05:56;6.53;;;1.55;;
50647;SDS011;36617;52.002;6.034;2023-02-01T16:08:23;8.63;;;1.60;;
50647;SDS011;36617;52.002;6.034;2023-02-01T16:10:49;4.45;;;1.38;;
50647;SDS011;36617;52.002;6.034;2023-02-01T16:13:16;6.28;;;1.25;;
50647;SDS011;36617;52.002;6.034;2023-02-01T16:15:41;4.65;;;1.27;;
50647;SDS011;36617;52.002;6.034;2023-02-01T16:18:07;5.40;;;1.30;;
50647;SDS011;36617;52.002;6.034;2023-02-01T16:20:35;3.97;;;1.17;;
50647;SDS011;36617;52.002;6.034;2023-02-01T16:23:02;4.07;;;1.23;;
50647;SDS011;36617;52.002;6.034;2023-02-01T16:25:27;5.07;;;1.20;;
50647;SDS011;36617;52.002;6.034;2023-02-01T16:27:53;4.63;;;1.30;;
50647;SDS011;36617;52.002;6.034;2023-02-01T16:30:18;4.57;;;1.23;;
50647;SDS011;36617;52.002;6.034;2023-02-01T16:32:49;4.72;;;1.40;;
50647;SDS011;36617;52.002;6.034;2023-02-01T16:35:19;4.43;;;1.20;;
50647;SDS011;36617;52.002;6.034;2023-02-01T16:37:45;4.32;;;1.40;;
50647;SDS011;36617;52.002;6.034;2023-02-01T16:40:14;4.63;;;1.13;;
50647;SDS011;36617;52.002;6.034;2023-02-01T16:42:40;4.75;;;1.40;;
50647;SDS011;36617;52.002;6.034;2023-02-01T16:45:05;4.00;;;1.33;;
50647;SDS011;36617;52.002;6.034;2023-02-01T16:47:31;4.00;;;1.10;;
50647;SDS011;36617;52.002;6.034;2023-02-01T16:49:56;4.33;;;1.20;;
50647;SDS011;36617;52.002;6.034;2023-02-01T16:52:24;4.87;;;1.23;;
50647;SDS011;36617;52.002;6.034;2023-02-01T16:54:49;3.85;;;1.35;;
50647;SDS011;36617;52.002;6.034;2023-02-01T16:57:15;5.15;;;1.17;;
50647;SDS011;36617;52.002;6.034;2023-02-01T16:59:41;5.00;;;1.40;;
50647;SDS011;36617;52.002;6.034;2023-02-01T17:02:10;4.57;;;1.20;;
50647;SDS011;36617;52.002;6.034;2023-02-01T17:04:35;4.22;;;1.20;;
50647;SDS011;36617;52.002;6.034;2023-02-01T17:07:01;5.47;;;1.40;;
50647;SDS011;36617;52.002;6.034;2023-02-01T17:09:33;4.88;;;1.30;;
50647;SDS011;36617;52.002;6.034;2023-02-01T17:11:59;4.32;;;1.30;;
50647;SDS011;36617;52.002;6.034;2023-02-01T17:14:24;4.10;;;1.40;;
50647;SDS011;36617;52.002;6.034;2023-02-01T17:16:50;3.37;;;1.10;;
50647;SDS011;36617;52.002;6.034;2023-02-01T17:19:16;4.88;;;1.30;;
50647;SDS011;36617;52.002;6.034;2023-02-01T17:21:44;5.03;;;1.33;;
50647;SDS011;36617;52.002;6.034;2023-02-01T17:24:11;3.53;;;1.15;;
50647;SDS011;36617;52.002;6.034;2023-02-01T17:26:38;5.33;;;1.20;;
50647;SDS011;36617;52.002;6.034;2023-02-01T17:29:03;4.50;;;1.40;;